• Join FlightAware (Why Join?)
  • Login
  • US Flag 
09:08AM EST


 

Airport Tracker/Info


-or-


 

Live Flight TrackerFlight Track Log ✈ AWE3972 ✈ 28-Oct-2013 ✈ KPHL - KMHT

Flight Track Log - Related Links

Times and Time Zones

All times are in EDT time to prevent confusion due to time zone crossing. See the AWE3972 flight status page for this flight to view local times or setup timezone preferences in your user account.

Time Position Orientation Groundspeed Altitude Reporting Facility
EDT Latitude Longitude Course Direction KTS MPH feet Rate Location/Type
07:49AM 39.8667 -75.2833 North 161 185 800  Level Philadelphia TRACON
07:50AM 39.8333 -75.3000 201° Southwest 175 201 2,200 2,257 Climbing Philadelphia TRACON
07:51AM 39.8000 -75.3500 229° Southwest 208 239 4,900 2,476 Climbing Philadelphia TRACON
07:52AM 40.1149 -74.9572 37° Northeast  Level Estimated
07:52AM 39.7333 -75.3667 191° South 241 277 7,400  Level Philadelphia TRACON
07:53AM 40.1956 -74.8622 46° Northeast  Level Estimated
07:53AM 39.7333 -75.3000 90° East 292 336 8,700  Level Philadelphia TRACON
07:54AM 40.2763 -74.7670 North  Level Estimated
07:54AM 39.7500 -75.1833 79° East 330 380 10,700  Level Philadelphia TRACON
07:55AM 39.7633 -74.9783 85° East 389 448 12,000 497 Climbing New York Center
07:56AM 39.7781 -74.8603 81° East 384 442 12,000 750 Level New York Center
07:57AM 39.7972 -74.7211 80° East 384 442 13,500 1,600 Climbing New York Center
07:58AM 39.8289 -74.5850 73° East 389 448 15,200 1,750 Climbing New York Center
07:59AM 39.8917 -74.4450 60° Northeast 389 448 17,000 1,400 Climbing New York Center
08:00AM 39.9514 -74.3369 54° Northeast 401 461 18,000 1,100 Climbing New York Center
08:01AM 40.0375 -74.2411 40° Northeast 406 467 19,200 1,100 Climbing New York Center
08:02AM 40.1239 -74.1425 41° Northeast 401 461 20,200 950 Climbing New York Center
08:03AM 40.2142 -74.0408 41° Northeast 412 474 21,100 1,300 Climbing New York Center
08:04AM 40.3025 -73.9414 41° Northeast 418 481 22,800 1,400 Climbing New York Center
08:05AM 40.3883 -73.8475 40° Northeast 418 481 23,900 1,100 Climbing New York Center
08:06AM 40.4847 -73.7400 40° Northeast 413 475 25,000 1,050 Climbing New York Center
08:07AM 40.5875 -73.7089 13° North 377 434 26,000 1,000 Climbing New York Center
08:08AM 40.6958 -73.7189 356° North 371 427 27,000 355 Climbing New York Center
08:10AM 40.8867 -73.7247 359° North 383 441 27,000  Level Boston Center
08:11AM 40.9950 -73.7289 358° North 387 445 27,000  Level Boston Center
08:12AM 41.1044 -73.7328 358° North 390 449 27,000  Level Boston Center
08:13AM 41.2158 -73.7378 358° North 397 457 27,000  Level Boston Center
08:14AM 41.3272 -73.7419 358° North 398 458 27,000  Level Boston Center
08:15AM 41.4389 -73.7461 358° North 400 460 27,000  Level Boston Center
08:16AM 41.5500 -73.7519 358° North 400 460 27,000  Level Boston Center
08:17AM 41.6606 -73.7561 358° North 398 458 27,000  Level Boston Center
08:18AM 41.7697 -73.7611 358° North 394 453 27,000  Level Boston Center
08:19AM 41.8850 -73.7606 360° North 388 447 27,000  Level Boston Center
08:20AM 41.9778 -73.6608 39° Northeast 432 497 27,000  Level Boston Center
08:21AM 42.0544 -73.5333 51° Northeast 441 507 27,000 -149 Level Boston Center
08:22AM 42.1264 -73.4142 51° Northeast 438 504 26,700 -992 Descending Boston Center
08:23AM 42.2072 -73.2811 51° Northeast 436 502 25,000 -1,623 Descending Boston Center
08:24AM 42.2811 -73.1578 51° Northeast 427 491 23,400 -1,574 Descending Boston Center
08:25AM 42.3589 -73.0283 51° Northeast 442 509 21,800 -1,750 Descending Boston Center
08:26AM 42.4481 -72.8806 51° Northeast 435 501 19,900 -1,377 Descending Boston Center
08:27AM 42.5211 -72.7553 52° Northeast 419 482 19,000 -672 Descending Boston Center
08:28AM 42.5836 -72.6317 55° Northeast 411 473 18,500 -1,113 Descending Boston Center
08:29AM 42.6300 -72.4978 65° Northeast 415 478 16,700 -1,835 Descending Boston Center
08:30AM 42.6764 -72.3619 65° Northeast 400 460 14,800 -1,983 Descending Boston Center
08:31AM 42.7253 -72.2186 65° Northeast 381 438 12,700 -1,918 Descending Boston Center
08:32AM 42.7694 -72.0867 65° Northeast 357 411 10,900 -1,770 Descending Boston Center
08:33AM 42.8056 -71.9725 67° East 332 382 9,100 -1,869 Descending Boston Center
08:34AM 42.8136 -71.8494 85° East 326 375 7,100 -1,736 Descending Boston Center
08:35AM 42.8197 -71.7328 86° East 310 357 5,600 -1,835 Descending Boston Center
08:36AM 42.8228 -71.6261 88° East 284 327 3,400 -1,452 Descending Boston Center
08:38AM 42.8492 -71.5439 66° East 216 249 2,600 -968 Descending Boston Center
08:39AM 42.8867 -71.4983 42° Northeast 181 208 1,400 -1,033 Descending Boston Center
08:40AM 42.9186 -71.4603 41° Northeast 157 181 500 -545 Descending Boston Center
08:41AM 42.9444 -71.4286 42° Northeast 155 178 300 -200 Descending Boston Center